Aérodrome :
LOGIN :

S'inscrire | Disclaimer

   EN    FR    IT 

 










Légende :    VFR   VFR Marginal   IFR   IFR Intensif   IFR Très Intensif
Visi : 
Plafond : 
>= 8 km
>= 3000ft
5 à 8 km
1000 à 3000 ft
1500m à 5 km
500 à 1000 ft
800 à 1500m
200 à 500 ft
< 800m
< 200 ft
Symboles :   Orages  Brouillard  Fortes neiges  Fortes précipitations  Vent > 20 kt
SIGMETs :   Divers  Orages  Givrage  Turbulence  Onde Orograph.  Cendres Volcan.






- Altitude de l'aérodrome : 39 ft
- Code IATA : TRS


LIPQ - Friuli Venezia Giulia Apt. Trieste

DERNIER METAR :
  • 110920Z 36004KT CAVOK 06/M04 Q1018

METARs EXPIRÉS :
  • 110850Z 33003KT 300V360 CAVOK 05/M03 Q1019
  • 110820Z VRB02KT CAVOK 04/M06 Q1019
  • 110750Z VRB02KT CAVOK 02/M06 Q1019
  • 110720Z VRB03KT CAVOK M01/M07 Q1019
  • 110650Z 35005KT CAVOK M01/M06 Q1019

TAF TAF LIPQ
Valide du 11 à 06h jusqu'au 12 à 06h UTC


110500Z 1106/1206 VRB05KT CAVOK



MET'MAP, la Météo Aéronautique d'un coup d'oeil ! - Copyright ORBIFLY Décembre 2007 - Disclaimer

ORBIFLY MET'MAP TEAM :

Programmation & Développement : Alexandra Zaïnal
Sur une idée originale de : Baudouin d'Aumeries
Assistance à la programmation : Marc-Olivier Méhu
Soutien technique & logistique : Manuel Goepfert

Contact : metmap@orbifly.com




SOURCES & CREDITS :

   NOAA